sensor_id;sensor_type;location;lat;lon;timestamp;pressure;altitude;pressure_sealevel;temperature;humidity
59686;BME280;45554;51.096;16.976;2022-10-16T00:01:36;100124.55;;;13.41;83.66
59686;BME280;45554;51.096;16.976;2022-10-16T00:04:04;100125.58;;;13.39;83.84
59686;BME280;45554;51.096;16.976;2022-10-16T00:06:32;100125.24;;;13.39;83.95
59686;BME280;45554;51.096;16.976;2022-10-16T00:09:00;100129.52;;;13.38;83.98
59686;BME280;45554;51.096;16.976;2022-10-16T00:11:34;100125.35;;;13.37;84.08
59686;BME280;45554;51.096;16.976;2022-10-16T00:14:06;100130.75;;;13.38;84.10
59686;BME280;45554;51.096;16.976;2022-10-16T00:16:35;100127.45;;;13.38;84.05
59686;BME280;45554;51.096;16.976;2022-10-16T00:19:03;100121.89;;;13.37;84.07
59686;BME280;45554;51.096;16.976;2022-10-16T00:21:32;100123.42;;;13.37;84.09
59686;BME280;45554;51.096;16.976;2022-10-16T00:24:04;100121.71;;;13.36;84.07
59686;BME280;45554;51.096;16.976;2022-10-16T00:26:34;100123.14;;;13.36;84.00
59686;BME280;45554;51.096;16.976;2022-10-16T00:29:03;100121.87;;;13.34;84.12
59686;BME280;45554;51.096;16.976;2022-10-16T00:31:31;100117.86;;;13.34;84.09
59686;BME280;45554;51.096;16.976;2022-10-16T00:33:59;100119.39;;;13.34;84.15
59686;BME280;45554;51.096;16.976;2022-10-16T00:36:28;100120.35;;;13.35;84.22
59686;BME280;45554;51.096;16.976;2022-10-16T00:38:56;100123.98;;;13.37;84.31
59686;BME280;45554;51.096;16.976;2022-10-16T00:41:32;100124.38;;;13.39;84.25
59686;BME280;45554;51.096;16.976;2022-10-16T00:44:02;100124.21;;;13.38;84.14
59686;BME280;45554;51.096;16.976;2022-10-16T00:46:40;100124.00;;;13.39;84.23
59686;BME280;45554;51.096;16.976;2022-10-16T00:49:13;100123.79;;;13.40;84.16
59686;BME280;45554;51.096;16.976;2022-10-16T00:51:47;100124.14;;;13.39;84.08
59686;BME280;45554;51.096;16.976;2022-10-16T00:54:19;100120.60;;;13.40;84.21
59686;BME280;45554;51.096;16.976;2022-10-16T00:56:49;100124.23;;;13.41;84.17
59686;BME280;45554;51.096;16.976;2022-10-16T00:59:20;100126.80;;;13.42;84.12
59686;BME280;45554;51.096;16.976;2022-10-16T01:01:52;100127.33;;;13.41;84.25
59686;BME280;45554;51.096;16.976;2022-10-16T01:04:21;100122.27;;;13.41;84.17
59686;BME280;45554;51.096;16.976;2022-10-16T01:09:47;100120.30;;;13.41;84.26
59686;BME280;45554;51.096;16.976;2022-10-16T01:12:30;100120.36;;;13.41;84.26
59686;BME280;45554;51.096;16.976;2022-10-16T01:17:48;100119.22;;;13.42;84.35
59686;BME280;45554;51.096;16.976;2022-10-16T01:20:54;100117.20;;;13.43;84.32
59686;BME280;45554;51.096;16.976;2022-10-16T01:24:11;100121.66;;;13.42;84.33
59686;BME280;45554;51.096;16.976;2022-10-16T01:26:38;100122.71;;;13.42;84.37
59686;BME280;45554;51.096;16.976;2022-10-16T01:29:22;100128.52;;;13.42;84.31
59686;BME280;45554;51.096;16.976;2022-10-16T01:31:59;100130.96;;;13.43;84.41
59686;BME280;45554;51.096;16.976;2022-10-16T01:34:34;100126.00;;;13.43;84.30
59686;BME280;45554;51.096;16.976;2022-10-16T01:37:18;100126.45;;;13.44;84.32
59686;BME280;45554;51.096;16.976;2022-10-16T01:39:48;100119.14;;;13.46;84.34
59686;BME280;45554;51.096;16.976;2022-10-16T01:42:22;100118.94;;;13.47;84.12
59686;BME280;45554;51.096;16.976;2022-10-16T01:44:52;100119.42;;;13.47;84.07
59686;BME280;45554;51.096;16.976;2022-10-16T01:47:23;100122.71;;;13.48;84.01
59686;BME280;45554;51.096;16.976;2022-10-16T01:49:53;100128.11;;;13.49;84.01
59686;BME280;45554;51.096;16.976;2022-10-16T01:52:25;100130.66;;;13.50;84.05
59686;BME280;45554;51.096;16.976;2022-10-16T01:54:56;100131.29;;;13.54;84.00
59686;BME280;45554;51.096;16.976;2022-10-16T01:57:26;100130.30;;;13.55;83.86
59686;BME280;45554;51.096;16.976;2022-10-16T01:59:58;100129.00;;;13.56;83.75
59686;BME280;45554;51.096;16.976;2022-10-16T02:02:41;100128.58;;;13.57;83.89
59686;BME280;45554;51.096;16.976;2022-10-16T02:05:20;100136.69;;;13.57;83.67
59686;BME280;45554;51.096;16.976;2022-10-16T02:07:51;100136.98;;;13.55;83.68
59686;BME280;45554;51.096;16.976;2022-10-16T02:10:20;100139.02;;;13.54;83.64
59686;BME280;45554;51.096;16.976;2022-10-16T02:12:54;100136.20;;;13.54;83.76
59686;BME280;45554;51.096;16.976;2022-10-16T02:15:24;100136.42;;;13.53;83.88
59686;BME280;45554;51.096;16.976;2022-10-16T02:17:52;100136.10;;;13.53;83.62
59686;BME280;45554;51.096;16.976;2022-10-16T02:20:25;100138.83;;;13.49;83.62
59686;BME280;45554;51.096;16.976;2022-10-16T02:22:54;100142.48;;;13.47;83.66
59686;BME280;45554;51.096;16.976;2022-10-16T02:25:32;100143.19;;;13.44;83.68
59686;BME280;45554;51.096;16.976;2022-10-16T02:28:06;100147.20;;;13.42;83.82
59686;BME280;45554;51.096;16.976;2022-10-16T02:30:41;100153.98;;;13.41;83.74
59686;BME280;45554;51.096;16.976;2022-10-16T02:33:13;100161.16;;;13.39;83.78
59686;BME280;45554;51.096;16.976;2022-10-16T02:35:44;100164.68;;;13.36;83.85
59686;BME280;45554;51.096;16.976;2022-10-16T02:38:14;100161.58;;;13.35;83.89
59686;BME280;45554;51.096;16.976;2022-10-16T02:40:44;100158.64;;;13.35;83.94
59686;BME280;45554;51.096;16.976;2022-10-16T02:43:12;100160.39;;;13.32;83.96
59686;BME280;45554;51.096;16.976;2022-10-16T02:45:40;100162.82;;;13.30;83.96
59686;BME280;45554;51.096;16.976;2022-10-16T02:48:09;100160.51;;;13.28;84.18
59686;BME280;45554;51.096;16.976;2022-10-16T02:50:37;100162.29;;;13.27;84.23
59686;BME280;45554;51.096;16.976;2022-10-16T02:53:06;100164.23;;;13.27;84.31
59686;BME280;45554;51.096;16.976;2022-10-16T02:55:33;100167.29;;;13.29;84.41
59686;BME280;45554;51.096;16.976;2022-10-16T02:58:01;100166.27;;;13.30;84.37
59686;BME280;45554;51.096;16.976;2022-10-16T03:00:29;100167.36;;;13.33;84.35
59686;BME280;45554;51.096;16.976;2022-10-16T03:02:57;100167.16;;;13.36;84.40
59686;BME280;45554;51.096;16.976;2022-10-16T03:05:25;100174.59;;;13.38;84.41
59686;BME280;45554;51.096;16.976;2022-10-16T03:07:53;100166.85;;;13.40;84.42
59686;BME280;45554;51.096;16.976;2022-10-16T03:10:20;100170.08;;;13.42;84.37
59686;BME280;45554;51.096;16.976;2022-10-16T03:12:48;100179.48;;;13.44;84.40
59686;BME280;45554;51.096;16.976;2022-10-16T03:15:16;100183.41;;;13.46;84.43
59686;BME280;45554;51.096;16.976;2022-10-16T03:17:44;100182.54;;;13.49;84.58
59686;BME280;45554;51.096;16.976;2022-10-16T03:20:12;100182.14;;;13.52;84.50
59686;BME280;45554;51.096;16.976;2022-10-16T03:22:40;100178.98;;;13.54;84.55
59686;BME280;45554;51.096;16.976;2022-10-16T03:25:08;100172.80;;;13.54;84.52
59686;BME280;45554;51.096;16.976;2022-10-16T03:27:36;100174.55;;;13.54;84.63
59686;BME280;45554;51.096;16.976;2022-10-16T03:30:06;100177.00;;;13.55;84.69
59686;BME280;45554;51.096;16.976;2022-10-16T03:32:37;100178.22;;;13.55;84.86
59686;BME280;45554;51.096;16.976;2022-10-16T03:35:05;100187.50;;;13.55;84.94
59686;BME280;45554;51.096;16.976;2022-10-16T03:37:35;100187.02;;;13.57;85.00
59686;BME280;45554;51.096;16.976;2022-10-16T03:40:04;100188.64;;;13.57;85.01
59686;BME280;45554;51.096;16.976;2022-10-16T03:42:32;100192.86;;;13.59;85.16
59686;BME280;45554;51.096;16.976;2022-10-16T03:45:01;100194.90;;;13.61;85.25
59686;BME280;45554;51.096;16.976;2022-10-16T03:47:30;100195.75;;;13.61;85.06
59686;BME280;45554;51.096;16.976;2022-10-16T03:50:00;100194.11;;;13.62;85.13
59686;BME280;45554;51.096;16.976;2022-10-16T03:52:28;100193.98;;;13.64;85.05
59686;BME280;45554;51.096;16.976;2022-10-16T03:54:57;100193.13;;;13.66;85.00
59686;BME280;45554;51.096;16.976;2022-10-16T03:57:25;100196.93;;;13.67;85.13
59686;BME280;45554;51.096;16.976;2022-10-16T03:59:53;100191.27;;;13.67;84.97
59686;BME280;45554;51.096;16.976;2022-10-16T04:02:21;100193.57;;;13.70;84.99
59686;BME280;45554;51.096;16.976;2022-10-16T04:04:48;100196.10;;;13.71;84.94
59686;BME280;45554;51.096;16.976;2022-10-16T04:07:16;100195.16;;;13.72;84.92
59686;BME280;45554;51.096;16.976;2022-10-16T04:09:44;100201.16;;;13.72;84.91
59686;BME280;45554;51.096;16.976;2022-10-16T04:12:12;100207.79;;;13.73;84.93
59686;BME280;45554;51.096;16.976;2022-10-16T04:14:40;100211.91;;;13.75;84.97
59686;BME280;45554;51.096;16.976;2022-10-16T04:17:08;100213.42;;;13.76;84.96
59686;BME280;45554;51.096;16.976;2022-10-16T04:19:35;100214.17;;;13.75;84.90
59686;BME280;45554;51.096;16.976;2022-10-16T04:22:03;100210.75;;;13.73;84.97
59686;BME280;45554;51.096;16.976;2022-10-16T04:24:31;100214.75;;;13.71;84.85
59686;BME280;45554;51.096;16.976;2022-10-16T04:26:59;100213.91;;;13.68;85.01
59686;BME280;45554;51.096;16.976;2022-10-16T04:29:26;100212.22;;;13.65;85.11
59686;BME280;45554;51.096;16.976;2022-10-16T04:31:55;100216.19;;;13.61;85.00
59686;BME280;45554;51.096;16.976;2022-10-16T04:34:22;100222.88;;;13.58;85.31
59686;BME280;45554;51.096;16.976;2022-10-16T04:36:50;100220.39;;;13.56;85.30
59686;BME280;45554;51.096;16.976;2022-10-16T04:39:18;100223.29;;;13.52;85.26
59686;BME280;45554;51.096;16.976;2022-10-16T04:41:46;100225.70;;;13.48;85.34
59686;BME280;45554;51.096;16.976;2022-10-16T04:44:14;100229.30;;;13.47;85.47
59686;BME280;45554;51.096;16.976;2022-10-16T04:46:42;100230.23;;;13.42;85.38
59686;BME280;45554;51.096;16.976;2022-10-16T04:49:11;100230.27;;;13.40;85.49
59686;BME280;45554;51.096;16.976;2022-10-16T04:51:39;100229.02;;;13.37;85.58
59686;BME280;45554;51.096;16.976;2022-10-16T04:54:08;100229.50;;;13.35;85.65
59686;BME280;45554;51.096;16.976;2022-10-16T04:56:36;100223.52;;;13.33;85.60
59686;BME280;45554;51.096;16.976;2022-10-16T04:59:11;100228.48;;;13.29;85.60
59686;BME280;45554;51.096;16.976;2022-10-16T05:01:38;100224.04;;;13.27;85.76
59686;BME280;45554;51.096;16.976;2022-10-16T05:04:06;100231.05;;;13.25;85.69
59686;BME280;45554;51.096;16.976;2022-10-16T05:06:34;100226.73;;;13.24;85.91
59686;BME280;45554;51.096;16.976;2022-10-16T05:09:02;100229.04;;;13.24;85.81
59686;BME280;45554;51.096;16.976;2022-10-16T05:11:30;100234.63;;;13.24;85.90
59686;BME280;45554;51.096;16.976;2022-10-16T05:13:58;100236.79;;;13.26;85.92
59686;BME280;45554;51.096;16.976;2022-10-16T05:16:27;100246.66;;;13.28;85.89
59686;BME280;45554;51.096;16.976;2022-10-16T05:18:55;100245.27;;;13.31;85.82
59686;BME280;45554;51.096;16.976;2022-10-16T05:21:43;100239.78;;;13.34;85.94
59686;BME280;45554;51.096;16.976;2022-10-16T05:24:12;100241.91;;;13.37;85.83
59686;BME280;45554;51.096;16.976;2022-10-16T05:26:40;100238.15;;;13.38;85.88
59686;BME280;45554;51.096;16.976;2022-10-16T05:29:09;100241.02;;;13.39;85.82
59686;BME280;45554;51.096;16.976;2022-10-16T05:31:36;100242.73;;;13.40;85.79
59686;BME280;45554;51.096;16.976;2022-10-16T05:34:04;100244.61;;;13.41;85.85
59686;BME280;45554;51.096;16.976;2022-10-16T05:36:33;100249.14;;;13.42;85.81
59686;BME280;45554;51.096;16.976;2022-10-16T05:39:02;100252.87;;;13.44;85.87
59686;BME280;45554;51.096;16.976;2022-10-16T05:41:30;100250.34;;;13.45;85.89
59686;BME280;45554;51.096;16.976;2022-10-16T05:43:59;100256.74;;;13.47;85.75
59686;BME280;45554;51.096;16.976;2022-10-16T05:46:26;100259.88;;;13.50;85.79
59686;BME280;45554;51.096;16.976;2022-10-16T05:48:56;100259.38;;;13.52;85.63
59686;BME280;45554;51.096;16.976;2022-10-16T05:51:25;100258.66;;;13.55;85.56
59686;BME280;45554;51.096;16.976;2022-10-16T05:53:53;100259.38;;;13.57;85.58
59686;BME280;45554;51.096;16.976;2022-10-16T05:56:21;100257.41;;;13.61;85.61
59686;BME280;45554;51.096;16.976;2022-10-16T05:58:49;100261.02;;;13.64;85.51
59686;BME280;45554;51.096;16.976;2022-10-16T06:01:18;100268.74;;;13.67;85.34
59686;BME280;45554;51.096;16.976;2022-10-16T06:03:46;100276.79;;;13.71;85.38
59686;BME280;45554;51.096;16.976;2022-10-16T06:06:17;100274.60;;;13.75;85.15
59686;BME280;45554;51.096;16.976;2022-10-16T06:08:47;100275.11;;;13.78;85.17
59686;BME280;45554;51.096;16.976;2022-10-16T06:11:21;100281.23;;;13.81;85.07
59686;BME280;45554;51.096;16.976;2022-10-16T06:14:00;100284.42;;;13.85;85.03
59686;BME280;45554;51.096;16.976;2022-10-16T06:16:30;100287.79;;;13.91;85.02
59686;BME280;45554;51.096;16.976;2022-10-16T06:18:58;100285.83;;;13.96;84.95
59686;BME280;45554;51.096;16.976;2022-10-16T06:21:29;100284.27;;;14.01;84.74
59686;BME280;45554;51.096;16.976;2022-10-16T06:23:57;100290.84;;;14.05;84.64
59686;BME280;45554;51.096;16.976;2022-10-16T06:26:29;100292.33;;;14.12;84.77
59686;BME280;45554;51.096;16.976;2022-10-16T06:28:59;100298.72;;;14.19;84.62
59686;BME280;45554;51.096;16.976;2022-10-16T06:31:30;100296.16;;;14.25;84.48
59686;BME280;45554;51.096;16.976;2022-10-16T06:34:01;100293.84;;;14.33;84.36
59686;BME280;45554;51.096;16.976;2022-10-16T06:36:29;100297.67;;;14.41;84.26
59686;BME280;45554;51.096;16.976;2022-10-16T06:38:58;100301.04;;;14.51;84.17
59686;BME280;45554;51.096;16.976;2022-10-16T06:41:27;100305.77;;;14.62;83.99
59686;BME280;45554;51.096;16.976;2022-10-16T06:43:55;100305.69;;;14.73;83.94
59686;BME280;45554;51.096;16.976;2022-10-16T06:46:24;100311.09;;;14.84;83.69
59686;BME280;45554;51.096;16.976;2022-10-16T06:48:52;100318.80;;;14.94;83.44
59686;BME280;45554;51.096;16.976;2022-10-16T06:51:22;100322.95;;;15.03;83.34
59686;BME280;45554;51.096;16.976;2022-10-16T06:53:53;100326.70;;;15.09;83.09
59686;BME280;45554;51.096;16.976;2022-10-16T06:56:31;100328.87;;;15.16;82.91
59686;BME280;45554;51.096;16.976;2022-10-16T06:58:59;100337.54;;;15.23;82.81
59686;BME280;45554;51.096;16.976;2022-10-16T07:01:28;100340.34;;;15.28;82.69
59686;BME280;45554;51.096;16.976;2022-10-16T07:03:55;100342.52;;;15.32;82.62
59686;BME280;45554;51.096;16.976;2022-10-16T07:06:25;100337.75;;;15.37;82.58
59686;BME280;45554;51.096;16.976;2022-10-16T07:08:53;100341.89;;;15.43;82.45
59686;BME280;45554;51.096;16.976;2022-10-16T07:11:22;100343.52;;;15.47;82.34
59686;BME280;45554;51.096;16.976;2022-10-16T07:13:51;100345.20;;;15.53;82.35
59686;BME280;45554;51.096;16.976;2022-10-16T07:16:25;100349.74;;;15.61;82.25
59686;BME280;45554;51.096;16.976;2022-10-16T07:18:57;100345.09;;;15.69;82.11
59686;BME280;45554;51.096;16.976;2022-10-16T07:21:32;100339.45;;;15.78;81.82
59686;BME280;45554;51.096;16.976;2022-10-16T07:24:06;100342.84;;;15.87;81.58
59686;BME280;45554;51.096;16.976;2022-10-16T07:26:37;100345.30;;;15.95;81.42
59686;BME280;45554;51.096;16.976;2022-10-16T07:29:11;100344.27;;;16.01;81.24
59686;BME280;45554;51.096;16.976;2022-10-16T07:31:41;100345.58;;;16.08;81.16
59686;BME280;45554;51.096;16.976;2022-10-16T07:34:13;100349.77;;;16.13;80.95
59686;BME280;45554;51.096;16.976;2022-10-16T07:36:41;100351.80;;;16.16;80.83
59686;BME280;45554;51.096;16.976;2022-10-16T07:39:10;100353.40;;;16.21;80.75
59686;BME280;45554;51.096;16.976;2022-10-16T07:41:39;100360.64;;;16.25;80.67
59686;BME280;45554;51.096;16.976;2022-10-16T07:44:07;100360.39;;;16.31;80.62
59686;BME280;45554;51.096;16.976;2022-10-16T07:46:35;100353.91;;;16.35;80.38
59686;BME280;45554;51.096;16.976;2022-10-16T07:49:03;100351.65;;;16.41;80.36
59686;BME280;45554;51.096;16.976;2022-10-16T07:51:32;100352.43;;;16.49;80.32
59686;BME280;45554;51.096;16.976;2022-10-16T07:54:00;100354.73;;;16.56;80.09
59686;BME280;45554;51.096;16.976;2022-10-16T07:56:30;100353.40;;;16.66;80.02
59686;BME280;45554;51.096;16.976;2022-10-16T07:58:59;100355.15;;;16.80;80.04
59686;BME280;45554;51.096;16.976;2022-10-16T08:01:26;100349.52;;;16.95;79.70
59686;BME280;45554;51.096;16.976;2022-10-16T08:03:54;100346.99;;;17.09;79.36
59686;BME280;45554;51.096;16.976;2022-10-16T08:06:23;100355.20;;;17.24;79.04
59686;BME280;45554;51.096;16.976;2022-10-16T08:08:55;100362.63;;;17.37;78.72
59686;BME280;45554;51.096;16.976;2022-10-16T08:11:24;100365.05;;;17.48;78.30
59686;BME280;45554;51.096;16.976;2022-10-16T08:13:52;100368.00;;;17.58;78.00
59686;BME280;45554;51.096;16.976;2022-10-16T08:16:20;100369.11;;;17.64;77.69
59686;BME280;45554;51.096;16.976;2022-10-16T08:18:48;100374.27;;;17.68;77.20
59686;BME280;45554;51.096;16.976;2022-10-16T08:21:20;100373.13;;;17.71;77.34
59686;BME280;45554;51.096;16.976;2022-10-16T08:23:50;100373.89;;;17.75;77.13
59686;BME280;45554;51.096;16.976;2022-10-16T08:26:25;100376.09;;;17.76;76.91
59686;BME280;45554;51.096;16.976;2022-10-16T08:28:55;100376.15;;;17.77;76.89
59686;BME280;45554;51.096;16.976;2022-10-16T08:31:25;100377.73;;;17.81;76.63
59686;BME280;45554;51.096;16.976;2022-10-16T08:33:54;100374.02;;;17.88;76.48
59686;BME280;45554;51.096;16.976;2022-10-16T08:36:22;100377.58;;;17.96;76.33
59686;BME280;45554;51.096;16.976;2022-10-16T08:38:50;100383.20;;;18.03;76.00
59686;BME280;45554;51.096;16.976;2022-10-16T08:46:44;100397.30;;;18.27;75.27
59686;BME280;45554;51.096;16.976;2022-10-16T08:49:17;100405.62;;;18.36;74.79
59686;BME280;45554;51.096;16.976;2022-10-16T08:51:48;100406.06;;;18.43;74.77
59686;BME280;45554;51.096;16.976;2022-10-16T08:54:37;100404.69;;;18.55;74.90
59686;BME280;45554;51.096;16.976;2022-10-16T08:57:20;100411.49;;;18.69;74.31
59686;BME280;45554;51.096;16.976;2022-10-16T08:59:53;100417.61;;;18.82;73.80
59686;BME280;45554;51.096;16.976;2022-10-16T09:02:33;100415.72;;;18.94;73.66
59686;BME280;45554;51.096;16.976;2022-10-16T09:05:24;100415.02;;;19.06;73.41
59686;BME280;45554;51.096;16.976;2022-10-16T09:16:33;100414.60;;;19.53;72.43
59686;BME280;45554;51.096;16.976;2022-10-16T09:21:41;100411.45;;;19.60;70.58
59686;BME280;45554;51.096;16.976;2022-10-16T09:24:11;100408.28;;;19.58;70.42
59686;BME280;45554;51.096;16.976;2022-10-16T09:26:41;100415.66;;;19.57;69.98
59686;BME280;45554;51.096;16.976;2022-10-16T09:29:12;100422.59;;;19.51;67.82
59686;BME280;45554;51.096;16.976;2022-10-16T09:31:42;100428.73;;;19.46;67.74
59686;BME280;45554;51.096;16.976;2022-10-16T09:34:30;100428.26;;;19.41;67.31
59686;BME280;45554;51.096;16.976;2022-10-16T09:37:04;100427.33;;;19.42;68.12
59686;BME280;45554;51.096;16.976;2022-10-16T09:39:47;100428.60;;;19.50;68.02
59686;BME280;45554;51.096;16.976;2022-10-16T09:42:34;100426.20;;;19.58;68.03
59686;BME280;45554;51.096;16.976;2022-10-16T09:45:04;100421.86;;;19.71;68.26
59686;BME280;45554;51.096;16.976;2022-10-16T09:47:37;100415.02;;;19.83;68.20
59686;BME280;45554;51.096;16.976;2022-10-16T09:50:28;100421.48;;;20.03;67.99
59686;BME280;45554;51.096;16.976;2022-10-16T09:53:13;100414.22;;;20.12;67.23
59686;BME280;45554;51.096;16.976;2022-10-16T09:55:52;100410.66;;;20.20;66.84
59686;BME280;45554;51.096;16.976;2022-10-16T09:58:22;100409.11;;;20.25;67.30
59686;BME280;45554;51.096;16.976;2022-10-16T10:00:52;100414.56;;;20.29;66.50
59686;BME280;45554;51.096;16.976;2022-10-16T10:03:39;100417.30;;;20.31;66.68
59686;BME280;45554;51.096;16.976;2022-10-16T10:06:34;100409.89;;;20.26;65.29
59686;BME280;45554;51.096;16.976;2022-10-16T10:17:09;100421.98;;;19.99;65.41
59686;BME280;45554;51.096;16.976;2022-10-16T10:20:27;100417.09;;;19.92;65.72
59686;BME280;45554;51.096;16.976;2022-10-16T10:22:56;100421.17;;;19.84;66.03
59686;BME280;45554;51.096;16.976;2022-10-16T10:37:30;100427.24;;;19.70;65.97
59686;BME280;45554;51.096;16.976;2022-10-16T10:40:23;100429.89;;;19.83;65.49
59686;BME280;45554;51.096;16.976;2022-10-16T10:45:42;100420.27;;;20.08;64.87
59686;BME280;45554;51.096;16.976;2022-10-16T10:48:21;100421.39;;;20.23;63.52
59686;BME280;45554;51.096;16.976;2022-10-16T10:51:03;100415.14;;;20.34;63.33
59686;BME280;45554;51.096;16.976;2022-10-16T10:53:56;100417.95;;;20.50;62.60
59686;BME280;45554;51.096;16.976;2022-10-16T10:56:50;100418.59;;;20.66;62.91
59686;BME280;45554;51.096;16.976;2022-10-16T11:02:26;100418.20;;;20.95;61.24
59686;BME280;45554;51.096;16.976;2022-10-16T11:05:09;100412.55;;;21.07;60.98
59686;BME280;45554;51.096;16.976;2022-10-16T11:07:47;100407.79;;;21.18;60.20
59686;BME280;45554;51.096;16.976;2022-10-16T11:10:27;100404.90;;;21.26;60.44
59686;BME280;45554;51.096;16.976;2022-10-16T11:15:58;100406.94;;;21.37;59.65
59686;BME280;45554;51.096;16.976;2022-10-16T11:18:44;100405.66;;;21.29;59.67
59686;BME280;45554;51.096;16.976;2022-10-16T11:21:16;100395.75;;;21.23;60.13
59686;BME280;45554;51.096;16.976;2022-10-16T11:24:00;100394.94;;;21.23;60.40
59686;BME280;45554;51.096;16.976;2022-10-16T11:26:34;100390.54;;;21.28;60.11
59686;BME280;45554;51.096;16.976;2022-10-16T11:29:10;100386.73;;;21.38;60.67
59686;BME280;45554;51.096;16.976;2022-10-16T11:31:49;100398.02;;;21.54;60.30
59686;BME280;45554;51.096;16.976;2022-10-16T11:34:28;100400.43;;;21.65;58.71
59686;BME280;45554;51.096;16.976;2022-10-16T11:37:20;100402.90;;;21.73;58.06
59686;BME280;45554;51.096;16.976;2022-10-16T11:39:58;100400.66;;;21.90;58.34
59686;BME280;45554;51.096;16.976;2022-10-16T11:42:37;100402.76;;;22.05;57.69
59686;BME280;45554;51.096;16.976;2022-10-16T11:45:23;100403.42;;;22.16;57.27
59686;BME280;45554;51.096;16.976;2022-10-16T11:48:00;100401.12;;;22.26;57.22
59686;BME280;45554;51.096;16.976;2022-10-16T11:55:52;100397.66;;;22.55;56.33
59686;BME280;45554;51.096;16.976;2022-10-16T12:01:15;100399.56;;;22.48;55.71
59686;BME280;45554;51.096;16.976;2022-10-16T12:04:01;100390.59;;;22.42;55.98
59686;BME280;45554;51.096;16.976;2022-10-16T12:06:48;100390.15;;;22.34;55.63
59686;BME280;45554;51.096;16.976;2022-10-16T12:09:25;100400.30;;;22.29;56.25
59686;BME280;45554;51.096;16.976;2022-10-16T12:11:54;100412.45;;;22.24;55.75
59686;BME280;45554;51.096;16.976;2022-10-16T12:14:36;100416.94;;;22.16;56.25
59686;BME280;45554;51.096;16.976;2022-10-16T12:17:37;100426.06;;;22.07;56.16
59686;BME280;45554;51.096;16.976;2022-10-16T12:20:32;100434.41;;;21.97;56.32
59686;BME280;45554;51.096;16.976;2022-10-16T12:23:03;100441.30;;;21.87;56.84
59686;BME280;45554;51.096;16.976;2022-10-16T12:25:32;100440.33;;;21.79;57.35
59686;BME280;45554;51.096;16.976;2022-10-16T12:28:07;100441.05;;;21.72;57.44
59686;BME280;45554;51.096;16.976;2022-10-16T12:30:57;100441.84;;;21.63;57.56
59686;BME280;45554;51.096;16.976;2022-10-16T12:33:29;100447.40;;;21.54;57.82
59686;BME280;45554;51.096;16.976;2022-10-16T12:36:00;100442.71;;;21.45;58.13
59686;BME280;45554;51.096;16.976;2022-10-16T12:38:36;100445.08;;;21.41;58.66
59686;BME280;45554;51.096;16.976;2022-10-16T12:41:08;100451.01;;;21.43;59.05
59686;BME280;45554;51.096;16.976;2022-10-16T12:43:38;100453.58;;;21.45;58.87
59686;BME280;45554;51.096;16.976;2022-10-16T12:48:40;100455.81;;;21.55;59.00
59686;BME280;45554;51.096;16.976;2022-10-16T12:54:15;100458.14;;;21.72;59.13
59686;BME280;45554;51.096;16.976;2022-10-16T12:57:09;100460.02;;;21.82;59.18
59686;BME280;45554;51.096;16.976;2022-10-16T13:00:04;100459.63;;;21.91;59.19
59686;BME280;45554;51.096;16.976;2022-10-16T13:08:44;100466.05;;;22.18;58.61
59686;BME280;45554;51.096;16.976;2022-10-16T13:11:48;100466.10;;;22.16;57.96
59686;BME280;45554;51.096;16.976;2022-10-16T13:22:39;100475.61;;;21.90;57.66
59686;BME280;45554;51.096;16.976;2022-10-16T13:27:55;100482.98;;;21.88;57.66
59686;BME280;45554;51.096;16.976;2022-10-16T13:30:27;100477.92;;;21.94;57.39
59686;BME280;45554;51.096;16.976;2022-10-16T13:33:06;100472.89;;;22.01;57.23
59686;BME280;45554;51.096;16.976;2022-10-16T13:35:36;100475.55;;;22.01;56.97
59686;BME280;45554;51.096;16.976;2022-10-16T13:38:15;100479.82;;;22.02;57.37
59686;BME280;45554;51.096;16.976;2022-10-16T13:43:31;100484.70;;;21.96;57.33
59686;BME280;45554;51.096;16.976;2022-10-16T13:46:03;100485.85;;;21.98;57.74
59686;BME280;45554;51.096;16.976;2022-10-16T13:48:34;100478.59;;;22.07;57.56
59686;BME280;45554;51.096;16.976;2022-10-16T13:51:17;100480.67;;;22.23;57.86
59686;BME280;45554;51.096;16.976;2022-10-16T13:53:47;100481.57;;;22.53;57.67
59686;BME280;45554;51.096;16.976;2022-10-16T13:56:20;100482.09;;;22.89;56.77
59686;BME280;45554;51.096;16.976;2022-10-16T13:59:23;100486.27;;;23.05;56.18
59686;BME280;45554;51.096;16.976;2022-10-16T14:01:52;100489.01;;;23.11;55.67
59686;BME280;45554;51.096;16.976;2022-10-16T14:04:22;100498.70;;;23.25;54.97
59686;BME280;45554;51.096;16.976;2022-10-16T14:06:51;100504.73;;;23.34;55.27
59686;BME280;45554;51.096;16.976;2022-10-16T14:09:27;100508.45;;;23.48;54.35
59686;BME280;45554;51.096;16.976;2022-10-16T14:12:02;100507.52;;;23.63;54.24
59686;BME280;45554;51.096;16.976;2022-10-16T14:14:35;100508.14;;;23.83;53.09
59686;BME280;45554;51.096;16.976;2022-10-16T14:17:14;100511.63;;;24.00;52.93
59686;BME280;45554;51.096;16.976;2022-10-16T14:19:46;100515.05;;;24.07;52.44
59686;BME280;45554;51.096;16.976;2022-10-16T14:24:57;100511.16;;;24.10;52.35
59686;BME280;45554;51.096;16.976;2022-10-16T14:27:34;100511.33;;;24.09;52.43
59686;BME280;45554;51.096;16.976;2022-10-16T14:33:03;100506.30;;;24.08;52.57
59686;BME280;45554;51.096;16.976;2022-10-16T14:35:34;100509.05;;;24.15;52.83
59686;BME280;45554;51.096;16.976;2022-10-16T14:38:04;100510.52;;;24.13;52.42
59686;BME280;45554;51.096;16.976;2022-10-16T14:40:37;100514.20;;;24.07;52.54